sensor_id;sensor_type;location;lat;lon;timestamp;pressure;altitude;pressure_sealevel;temperature;humidity
59650;BME280;46162;57.568;25.814;2023-09-18T00:02:23;101539.72;;;7.86;100.00
59650;BME280;46162;57.568;25.814;2023-09-18T00:04:52;101542.53;;;7.96;100.00
59650;BME280;46162;57.568;25.814;2023-09-18T00:07:21;101546.72;;;8.00;100.00
59650;BME280;46162;57.568;25.814;2023-09-18T00:09:49;101543.44;;;7.96;100.00
59650;BME280;46162;57.568;25.814;2023-09-18T00:12:20;101539.34;;;8.15;100.00
59650;BME280;46162;57.568;25.814;2023-09-18T00:14:48;101551.34;;;7.98;100.00
59650;BME280;46162;57.568;25.814;2023-09-18T00:17:17;101550.56;;;7.85;100.00
59650;BME280;46162;57.568;25.814;2023-09-18T00:19:46;101549.56;;;7.86;100.00
59650;BME280;46162;57.568;25.814;2023-09-18T00:22:15;101555.88;;;7.97;100.00
59650;BME280;46162;57.568;25.814;2023-09-18T00:24:44;101549.00;;;7.93;100.00
59650;BME280;46162;57.568;25.814;2023-09-18T00:27:13;101559.31;;;8.00;100.00
59650;BME280;46162;57.568;25.814;2023-09-18T00:29:44;101560.16;;;7.76;100.00
59650;BME280;46162;57.568;25.814;2023-09-18T00:32:13;101556.09;;;7.70;100.00
59650;BME280;46162;57.568;25.814;2023-09-18T00:34:41;101554.53;;;7.55;100.00
59650;BME280;46162;57.568;25.814;2023-09-18T00:37:10;101553.88;;;7.51;100.00
59650;BME280;46162;57.568;25.814;2023-09-18T00:39:40;101553.84;;;7.64;100.00
59650;BME280;46162;57.568;25.814;2023-09-18T00:42:09;101558.81;;;7.58;100.00
59650;BME280;46162;57.568;25.814;2023-09-18T00:44:41;101556.13;;;7.58;100.00
59650;BME280;46162;57.568;25.814;2023-09-18T00:47:12;101554.47;;;7.68;100.00
59650;BME280;46162;57.568;25.814;2023-09-18T00:49:45;101557.84;;;7.59;100.00
59650;BME280;46162;57.568;25.814;2023-09-18T00:52:14;101551.69;;;7.69;100.00
59650;BME280;46162;57.568;25.814;2023-09-18T00:54:44;101564.25;;;7.69;100.00
59650;BME280;46162;57.568;25.814;2023-09-18T00:57:13;101568.09;;;7.28;100.00
59650;BME280;46162;57.568;25.814;2023-09-18T00:59:42;101564.25;;;7.06;100.00
59650;BME280;46162;57.568;25.814;2023-09-18T01:02:13;101560.38;;;7.10;100.00
59650;BME280;46162;57.568;25.814;2023-09-18T01:04:42;101565.31;;;6.91;100.00
59650;BME280;46162;57.568;25.814;2023-09-18T01:07:11;101563.38;;;6.93;100.00
59650;BME280;46162;57.568;25.814;2023-09-18T01:09:40;101567.94;;;6.53;100.00
59650;BME280;46162;57.568;25.814;2023-09-18T01:12:15;101562.56;;;6.53;100.00
59650;BME280;46162;57.568;25.814;2023-09-18T01:14:55;101558.16;;;6.39;100.00
59650;BME280;46162;57.568;25.814;2023-09-18T01:17:27;101554.97;;;6.46;100.00
59650;BME280;46162;57.568;25.814;2023-09-18T01:19:56;101550.13;;;6.52;100.00
59650;BME280;46162;57.568;25.814;2023-09-18T01:24:55;101553.97;;;6.47;100.00
59650;BME280;46162;57.568;25.814;2023-09-18T01:27:23;101548.84;;;6.17;100.00
59650;BME280;46162;57.568;25.814;2023-09-18T01:29:52;101536.72;;;6.12;100.00
59650;BME280;46162;57.568;25.814;2023-09-18T01:32:24;101540.94;;;6.16;100.00
59650;BME280;46162;57.568;25.814;2023-09-18T01:34:56;101534.06;;;6.12;100.00
59650;BME280;46162;57.568;25.814;2023-09-18T01:37:28;101531.88;;;6.04;100.00
59650;BME280;46162;57.568;25.814;2023-09-18T01:39:59;101534.78;;;5.87;100.00
59650;BME280;46162;57.568;25.814;2023-09-18T01:42:27;101540.09;;;5.74;100.00
59650;BME280;46162;57.568;25.814;2023-09-18T01:44:56;101540.34;;;5.84;100.00
59650;BME280;46162;57.568;25.814;2023-09-18T01:47:25;101544.75;;;5.85;100.00
59650;BME280;46162;57.568;25.814;2023-09-18T01:49:54;101545.22;;;5.91;100.00
59650;BME280;46162;57.568;25.814;2023-09-18T01:52:23;101543.03;;;5.84;100.00
59650;BME280;46162;57.568;25.814;2023-09-18T01:54:52;101536.75;;;5.70;100.00
59650;BME280;46162;57.568;25.814;2023-09-18T01:57:22;101542.88;;;5.72;100.00
59650;BME280;46162;57.568;25.814;2023-09-18T01:59:50;101543.50;;;5.76;100.00
59650;BME280;46162;57.568;25.814;2023-09-18T02:02:19;101546.34;;;5.87;100.00
59650;BME280;46162;57.568;25.814;2023-09-18T02:05:08;101547.00;;;6.05;100.00
59650;BME280;46162;57.568;25.814;2023-09-18T02:07:37;101550.44;;;5.93;100.00
59650;BME280;46162;57.568;25.814;2023-09-18T02:10:06;101547.81;;;5.78;100.00
59650;BME280;46162;57.568;25.814;2023-09-18T02:12:37;101552.28;;;5.92;100.00
59650;BME280;46162;57.568;25.814;2023-09-18T02:15:07;101553.94;;;5.95;100.00
59650;BME280;46162;57.568;25.814;2023-09-18T02:17:38;101550.53;;;6.06;100.00
59650;BME280;46162;57.568;25.814;2023-09-18T02:20:08;101558.19;;;6.12;100.00
59650;BME280;46162;57.568;25.814;2023-09-18T02:22:39;101565.81;;;6.18;100.00
59650;BME280;46162;57.568;25.814;2023-09-18T02:25:08;101566.47;;;6.21;100.00
59650;BME280;46162;57.568;25.814;2023-09-18T02:27:38;101570.28;;;6.05;100.00
59650;BME280;46162;57.568;25.814;2023-09-18T02:30:07;101565.94;;;5.46;100.00
59650;BME280;46162;57.568;25.814;2023-09-18T02:32:37;101562.03;;;5.09;100.00
59650;BME280;46162;57.568;25.814;2023-09-18T02:35:06;101558.03;;;5.02;100.00
59650;BME280;46162;57.568;25.814;2023-09-18T02:37:35;101553.06;;;4.95;100.00
59650;BME280;46162;57.568;25.814;2023-09-18T02:40:07;101554.13;;;4.93;100.00
59650;BME280;46162;57.568;25.814;2023-09-18T02:42:37;101550.66;;;4.91;100.00
59650;BME280;46162;57.568;25.814;2023-09-18T02:45:06;101556.28;;;4.72;100.00
59650;BME280;46162;57.568;25.814;2023-09-18T02:47:36;101553.22;;;4.64;100.00
59650;BME280;46162;57.568;25.814;2023-09-18T02:50:09;101562.34;;;4.60;100.00
59650;BME280;46162;57.568;25.814;2023-09-18T02:52:39;101558.72;;;4.46;100.00
59650;BME280;46162;57.568;25.814;2023-09-18T02:55:08;101557.16;;;4.42;100.00
59650;BME280;46162;57.568;25.814;2023-09-18T02:57:39;101561.06;;;4.37;100.00
59650;BME280;46162;57.568;25.814;2023-09-18T03:00:09;101558.47;;;4.35;100.00
59650;BME280;46162;57.568;25.814;2023-09-18T03:02:38;101554.66;;;4.39;100.00
59650;BME280;46162;57.568;25.814;2023-09-18T03:05:07;101547.97;;;4.32;100.00
59650;BME280;46162;57.568;25.814;2023-09-18T03:07:36;101560.00;;;4.39;100.00
59650;BME280;46162;57.568;25.814;2023-09-18T03:10:07;101563.97;;;4.48;100.00
59650;BME280;46162;57.568;25.814;2023-09-18T03:12:42;101555.00;;;4.49;100.00
59650;BME280;46162;57.568;25.814;2023-09-18T03:15:11;101560.06;;;4.53;100.00
59650;BME280;46162;57.568;25.814;2023-09-18T03:17:40;101562.75;;;4.53;100.00
59650;BME280;46162;57.568;25.814;2023-09-18T03:20:10;101570.38;;;4.60;100.00
59650;BME280;46162;57.568;25.814;2023-09-18T03:22:39;101576.69;;;4.59;100.00
59650;BME280;46162;57.568;25.814;2023-09-18T03:25:08;101582.19;;;4.86;100.00
59650;BME280;46162;57.568;25.814;2023-09-18T03:27:37;101575.34;;;4.96;100.00
59650;BME280;46162;57.568;25.814;2023-09-18T03:30:09;101566.81;;;5.04;100.00
59650;BME280;46162;57.568;25.814;2023-09-18T03:32:40;101573.53;;;5.11;100.00
59650;BME280;46162;57.568;25.814;2023-09-18T03:35:10;101576.22;;;5.25;100.00
59650;BME280;46162;57.568;25.814;2023-09-18T03:37:47;101574.84;;;5.04;100.00
59650;BME280;46162;57.568;25.814;2023-09-18T03:40:17;101568.00;;;5.00;100.00
59650;BME280;46162;57.568;25.814;2023-09-18T03:42:46;101573.91;;;5.05;100.00
59650;BME280;46162;57.568;25.814;2023-09-18T03:45:17;101575.91;;;5.15;100.00
59650;BME280;46162;57.568;25.814;2023-09-18T03:47:48;101576.97;;;5.13;100.00
59650;BME280;46162;57.568;25.814;2023-09-18T03:50:19;101575.63;;;5.06;100.00
59650;BME280;46162;57.568;25.814;2023-09-18T03:52:47;101573.16;;;5.03;100.00
59650;BME280;46162;57.568;25.814;2023-09-18T03:55:16;101574.66;;;5.21;100.00
59650;BME280;46162;57.568;25.814;2023-09-18T03:57:45;101588.16;;;5.34;100.00
59650;BME280;46162;57.568;25.814;2023-09-18T04:00:17;101583.47;;;5.52;100.00
59650;BME280;46162;57.568;25.814;2023-09-18T04:02:46;101584.25;;;5.54;100.00
59650;BME280;46162;57.568;25.814;2023-09-18T04:05:15;101587.50;;;5.45;100.00
59650;BME280;46162;57.568;25.814;2023-09-18T04:07:44;101588.63;;;5.41;100.00
59650;BME280;46162;57.568;25.814;2023-09-18T04:10:14;101583.84;;;5.46;100.00
59650;BME280;46162;57.568;25.814;2023-09-18T04:12:47;101593.59;;;5.61;100.00
59650;BME280;46162;57.568;25.814;2023-09-18T04:15:19;101592.84;;;5.59;100.00
59650;BME280;46162;57.568;25.814;2023-09-18T04:17:50;101595.53;;;5.59;100.00
59650;BME280;46162;57.568;25.814;2023-09-18T04:20:18;101599.63;;;5.50;100.00
59650;BME280;46162;57.568;25.814;2023-09-18T04:22:47;101598.22;;;5.45;100.00
59650;BME280;46162;57.568;25.814;2023-09-18T04:25:36;101593.13;;;5.40;100.00
59650;BME280;46162;57.568;25.814;2023-09-18T04:28:05;101589.97;;;5.33;100.00
59650;BME280;46162;57.568;25.814;2023-09-18T04:30:35;101590.16;;;5.30;100.00
59650;BME280;46162;57.568;25.814;2023-09-18T04:33:05;101587.69;;;5.13;100.00
59650;BME280;46162;57.568;25.814;2023-09-18T04:35:34;101589.31;;;5.15;100.00
59650;BME280;46162;57.568;25.814;2023-09-18T04:38:04;101591.22;;;5.28;100.00
59650;BME280;46162;57.568;25.814;2023-09-18T04:40:32;101589.88;;;5.21;100.00
59650;BME280;46162;57.568;25.814;2023-09-18T04:43:02;101588.91;;;5.22;100.00
59650;BME280;46162;57.568;25.814;2023-09-18T04:45:31;101594.47;;;5.33;100.00
59650;BME280;46162;57.568;25.814;2023-09-18T04:48:02;101598.56;;;5.38;100.00
59650;BME280;46162;57.568;25.814;2023-09-18T04:50:33;101602.41;;;5.49;100.00
59650;BME280;46162;57.568;25.814;2023-09-18T04:53:02;101598.66;;;5.66;100.00
59650;BME280;46162;57.568;25.814;2023-09-18T04:55:32;101590.91;;;5.61;100.00
59650;BME280;46162;57.568;25.814;2023-09-18T04:58:01;101590.81;;;5.48;100.00
59650;BME280;46162;57.568;25.814;2023-09-18T05:00:31;101588.38;;;5.87;100.00
59650;BME280;46162;57.568;25.814;2023-09-18T05:03:03;101591.84;;;5.89;100.00
59650;BME280;46162;57.568;25.814;2023-09-18T05:05:32;101584.53;;;6.05;100.00
59650;BME280;46162;57.568;25.814;2023-09-18T05:08:01;101591.16;;;5.85;100.00
59650;BME280;46162;57.568;25.814;2023-09-18T05:10:30;101592.69;;;5.89;100.00
59650;BME280;46162;57.568;25.814;2023-09-18T05:12:59;101586.38;;;5.76;100.00
59650;BME280;46162;57.568;25.814;2023-09-18T05:15:28;101582.72;;;5.91;100.00
59650;BME280;46162;57.568;25.814;2023-09-18T05:17:58;101580.34;;;6.01;100.00
59650;BME280;46162;57.568;25.814;2023-09-18T05:20:30;101577.53;;;6.02;100.00
59650;BME280;46162;57.568;25.814;2023-09-18T05:22:59;101580.91;;;5.92;100.00
59650;BME280;46162;57.568;25.814;2023-09-18T05:25:29;101578.91;;;5.95;100.00
59650;BME280;46162;57.568;25.814;2023-09-18T05:28:00;101583.59;;;6.06;100.00
59650;BME280;46162;57.568;25.814;2023-09-18T05:30:33;101581.06;;;6.03;100.00
59650;BME280;46162;57.568;25.814;2023-09-18T05:33:03;101584.47;;;6.19;100.00
59650;BME280;46162;57.568;25.814;2023-09-18T05:35:35;101585.53;;;6.17;100.00
59650;BME280;46162;57.568;25.814;2023-09-18T05:38:05;101588.88;;;6.20;100.00
59650;BME280;46162;57.568;25.814;2023-09-18T05:40:32;101586.34;;;6.32;100.00
59650;BME280;46162;57.568;25.814;2023-09-18T05:43:02;101575.00;;;6.41;100.00
59650;BME280;46162;57.568;25.814;2023-09-18T05:45:33;101574.28;;;6.52;100.00
59650;BME280;46162;57.568;25.814;2023-09-18T05:48:01;101580.31;;;6.55;100.00
59650;BME280;46162;57.568;25.814;2023-09-18T05:50:34;101581.41;;;6.65;100.00
59650;BME280;46162;57.568;25.814;2023-09-18T05:53:03;101587.09;;;6.74;100.00
59650;BME280;46162;57.568;25.814;2023-09-18T05:55:36;101580.44;;;6.79;100.00
59650;BME280;46162;57.568;25.814;2023-09-18T05:58:04;101584.88;;;6.80;100.00
59650;BME280;46162;57.568;25.814;2023-09-18T06:00:34;101587.88;;;6.88;100.00
59650;BME280;46162;57.568;25.814;2023-09-18T06:03:04;101583.56;;;6.86;100.00
59650;BME280;46162;57.568;25.814;2023-09-18T06:05:35;101588.31;;;6.95;100.00
59650;BME280;46162;57.568;25.814;2023-09-18T06:08:04;101583.16;;;7.05;100.00
59650;BME280;46162;57.568;25.814;2023-09-18T06:10:34;101588.06;;;7.24;100.00
59650;BME280;46162;57.568;25.814;2023-09-18T06:13:03;101576.13;;;7.41;100.00
59650;BME280;46162;57.568;25.814;2023-09-18T06:15:33;101576.13;;;7.53;100.00
59650;BME280;46162;57.568;25.814;2023-09-18T06:18:02;101575.59;;;7.48;100.00
59650;BME280;46162;57.568;25.814;2023-09-18T06:20:35;101573.75;;;7.49;100.00
59650;BME280;46162;57.568;25.814;2023-09-18T06:23:04;101577.91;;;7.66;100.00
59650;BME280;46162;57.568;25.814;2023-09-18T06:25:33;101579.13;;;7.62;100.00
59650;BME280;46162;57.568;25.814;2023-09-18T06:28:02;101582.88;;;7.72;100.00
59650;BME280;46162;57.568;25.814;2023-09-18T06:30:32;101576.38;;;7.87;100.00
59650;BME280;46162;57.568;25.814;2023-09-18T06:33:01;101577.78;;;7.80;100.00
59650;BME280;46162;57.568;25.814;2023-09-18T06:35:31;101581.75;;;7.87;100.00
59650;BME280;46162;57.568;25.814;2023-09-18T06:38:01;101577.16;;;8.01;100.00
59650;BME280;46162;57.568;25.814;2023-09-18T06:40:33;101579.50;;;8.05;100.00
59650;BME280;46162;57.568;25.814;2023-09-18T06:43:03;101575.16;;;8.15;100.00
59650;BME280;46162;57.568;25.814;2023-09-18T06:45:31;101575.97;;;8.29;100.00
59650;BME280;46162;57.568;25.814;2023-09-18T06:48:01;101567.31;;;8.36;100.00
59650;BME280;46162;57.568;25.814;2023-09-18T06:50:30;101567.78;;;8.54;100.00
59650;BME280;46162;57.568;25.814;2023-09-18T06:53:00;101558.41;;;8.71;100.00
59650;BME280;46162;57.568;25.814;2023-09-18T06:55:29;101554.28;;;8.90;100.00
59650;BME280;46162;57.568;25.814;2023-09-18T06:57:58;101549.91;;;9.11;100.00
59650;BME280;46162;57.568;25.814;2023-09-18T07:00:26;101543.78;;;9.09;100.00
59650;BME280;46162;57.568;25.814;2023-09-18T07:02:55;101536.69;;;9.31;100.00
59650;BME280;46162;57.568;25.814;2023-09-18T07:05:24;101534.38;;;9.26;100.00
59650;BME280;46162;57.568;25.814;2023-09-18T07:07:53;101524.94;;;9.32;100.00
59650;BME280;46162;57.568;25.814;2023-09-18T07:10:24;101529.94;;;9.36;100.00
59650;BME280;46162;57.568;25.814;2023-09-18T07:12:53;101520.25;;;9.56;100.00
59650;BME280;46162;57.568;25.814;2023-09-18T07:15:22;101518.66;;;9.65;100.00
59650;BME280;46162;57.568;25.814;2023-09-18T07:17:51;101515.31;;;9.73;100.00
59650;BME280;46162;57.568;25.814;2023-09-18T07:20:20;101513.09;;;9.78;100.00
59650;BME280;46162;57.568;25.814;2023-09-18T07:22:50;101510.34;;;9.89;100.00
59650;BME280;46162;57.568;25.814;2023-09-18T07:25:19;101503.00;;;9.91;100.00
59650;BME280;46162;57.568;25.814;2023-09-18T07:27:49;101502.34;;;9.99;100.00
59650;BME280;46162;57.568;25.814;2023-09-18T07:30:18;101499.28;;;10.03;100.00
59650;BME280;46162;57.568;25.814;2023-09-18T07:32:49;101498.78;;;10.09;100.00
59650;BME280;46162;57.568;25.814;2023-09-18T07:35:17;101496.94;;;10.10;100.00
59650;BME280;46162;57.568;25.814;2023-09-18T07:37:47;101496.56;;;10.15;100.00
59650;BME280;46162;57.568;25.814;2023-09-18T07:40:16;101487.53;;;10.25;100.00
59650;BME280;46162;57.568;25.814;2023-09-18T07:42:44;101498.13;;;10.49;100.00
59650;BME280;46162;57.568;25.814;2023-09-18T07:45:14;101501.94;;;10.68;100.00
59650;BME280;46162;57.568;25.814;2023-09-18T07:47:45;101502.19;;;10.65;100.00
59650;BME280;46162;57.568;25.814;2023-09-18T07:50:14;101500.91;;;10.90;100.00
59650;BME280;46162;57.568;25.814;2023-09-18T07:52:45;101497.03;;;10.83;100.00
59650;BME280;46162;57.568;25.814;2023-09-18T07:55:14;101501.19;;;10.87;100.00
59650;BME280;46162;57.568;25.814;2023-09-18T07:57:43;101500.97;;;11.00;100.00
59650;BME280;46162;57.568;25.814;2023-09-18T08:00:13;101501.63;;;11.13;100.00
59650;BME280;46162;57.568;25.814;2023-09-18T08:02:44;101494.16;;;11.36;100.00
59650;BME280;46162;57.568;25.814;2023-09-18T08:05:16;101503.19;;;11.56;100.00
59650;BME280;46162;57.568;25.814;2023-09-18T08:07:46;101507.97;;;11.33;100.00
59650;BME280;46162;57.568;25.814;2023-09-18T08:10:15;101509.44;;;11.56;100.00
59650;BME280;46162;57.568;25.814;2023-09-18T08:12:45;101506.44;;;11.59;100.00
59650;BME280;46162;57.568;25.814;2023-09-18T08:15:14;101507.16;;;11.52;100.00
59650;BME280;46162;57.568;25.814;2023-09-18T08:17:44;101507.47;;;11.58;100.00
59650;BME280;46162;57.568;25.814;2023-09-18T08:20:14;101502.91;;;11.59;100.00
59650;BME280;46162;57.568;25.814;2023-09-18T08:22:43;101501.97;;;11.79;100.00
59650;BME280;46162;57.568;25.814;2023-09-18T08:25:12;101499.28;;;11.89;100.00
59650;BME280;46162;57.568;25.814;2023-09-18T08:27:41;101493.84;;;11.70;100.00
59650;BME280;46162;57.568;25.814;2023-09-18T08:30:13;101496.16;;;11.94;100.00
59650;BME280;46162;57.568;25.814;2023-09-18T08:32:44;101498.78;;;11.74;100.00
59650;BME280;46162;57.568;25.814;2023-09-18T08:35:12;101495.53;;;11.80;100.00
59650;BME280;46162;57.568;25.814;2023-09-18T08:37:42;101491.81;;;11.72;100.00
59650;BME280;46162;57.568;25.814;2023-09-18T08:40:11;101486.75;;;11.98;100.00
59650;BME280;46162;57.568;25.814;2023-09-18T08:42:45;101489.59;;;11.87;100.00
59650;BME280;46162;57.568;25.814;2023-09-18T08:45:19;101483.56;;;11.73;100.00
59650;BME280;46162;57.568;25.814;2023-09-18T08:47:54;101491.34;;;12.07;100.00
59650;BME280;46162;57.568;25.814;2023-09-18T08:50:23;101474.81;;;12.00;100.00
59650;BME280;46162;57.568;25.814;2023-09-18T08:52:53;101474.22;;;12.07;100.00
59650;BME280;46162;57.568;25.814;2023-09-18T08:55:23;101488.88;;;12.33;100.00
59650;BME280;46162;57.568;25.814;2023-09-18T08:57:53;101481.91;;;12.31;100.00
59650;BME280;46162;57.568;25.814;2023-09-18T09:00:21;101485.63;;;12.20;100.00
59650;BME280;46162;57.568;25.814;2023-09-18T09:02:52;101481.06;;;12.40;100.00
59650;BME280;46162;57.568;25.814;2023-09-18T09:05:21;101478.47;;;12.38;100.00
59650;BME280;46162;57.568;25.814;2023-09-18T09:07:51;101479.16;;;12.60;100.00
59650;BME280;46162;57.568;25.814;2023-09-18T09:10:19;101484.44;;;12.61;100.00
59650;BME280;46162;57.568;25.814;2023-09-18T09:12:50;101475.34;;;12.43;100.00
59650;BME280;46162;57.568;25.814;2023-09-18T09:15:21;101462.63;;;12.63;100.00
59650;BME280;46162;57.568;25.814;2023-09-18T09:18:02;101477.59;;;12.67;100.00
59650;BME280;46162;57.568;25.814;2023-09-18T09:20:32;101478.28;;;12.79;100.00
59650;BME280;46162;57.568;25.814;2023-09-18T09:23:01;101466.72;;;12.77;100.00
59650;BME280;46162;57.568;25.814;2023-09-18T09:25:32;101474.53;;;12.89;100.00
59650;BME280;46162;57.568;25.814;2023-09-18T09:28:03;101464.72;;;12.79;100.00
59650;BME280;46162;57.568;25.814;2023-09-18T09:30:33;101464.94;;;12.95;100.00
59650;BME280;46162;57.568;25.814;2023-09-18T09:33:05;101460.31;;;13.05;100.00
59650;BME280;46162;57.568;25.814;2023-09-18T09:35:36;101459.44;;;13.15;100.00
59650;BME280;46162;57.568;25.814;2023-09-18T09:38:08;101463.16;;;13.13;100.00
59650;BME280;46162;57.568;25.814;2023-09-18T09:40:39;101453.97;;;13.24;100.00
59650;BME280;46162;57.568;25.814;2023-09-18T09:43:10;101459.03;;;13.65;100.00
59650;BME280;46162;57.568;25.814;2023-09-18T09:45:41;101452.00;;;13.72;100.00
59650;BME280;46162;57.568;25.814;2023-09-18T09:48:14;101449.56;;;13.51;100.00
59650;BME280;46162;57.568;25.814;2023-09-18T09:50:47;101452.75;;;13.46;100.00
59650;BME280;46162;57.568;25.814;2023-09-18T09:53:16;101452.03;;;13.44;100.00
59650;BME280;46162;57.568;25.814;2023-09-18T09:55:51;101451.84;;;13.55;100.00
59650;BME280;46162;57.568;25.814;2023-09-18T09:58:26;101446.88;;;13.69;100.00
59650;BME280;46162;57.568;25.814;2023-09-18T10:01:03;101444.34;;;13.85;100.00
59650;BME280;46162;57.568;25.814;2023-09-18T10:03:38;101447.97;;;13.94;100.00
59650;BME280;46162;57.568;25.814;2023-09-18T10:06:09;101447.75;;;13.87;100.00
59650;BME280;46162;57.568;25.814;2023-09-18T10:08:40;101443.16;;;14.06;100.00
59650;BME280;46162;57.568;25.814;2023-09-18T10:11:12;101444.78;;;13.98;100.00
59650;BME280;46162;57.568;25.814;2023-09-18T10:13:47;101445.50;;;14.01;100.00
59650;BME280;46162;57.568;25.814;2023-09-18T10:16:18;101434.00;;;14.07;100.00
59650;BME280;46162;57.568;25.814;2023-09-18T10:18:56;101430.06;;;14.01;100.00
59650;BME280;46162;57.568;25.814;2023-09-18T10:21:34;101424.31;;;14.04;100.00
59650;BME280;46162;57.568;25.814;2023-09-18T10:24:12;101420.50;;;14.15;100.00
59650;BME280;46162;57.568;25.814;2023-09-18T10:26:50;101417.41;;;14.10;100.00
59650;BME280;46162;57.568;25.814;2023-09-18T10:29:19;101417.63;;;14.16;100.00
59650;BME280;46162;57.568;25.814;2023-09-18T10:31:50;101417.75;;;14.33;100.00
59650;BME280;46162;57.568;25.814;2023-09-18T10:34:21;101399.25;;;14.36;100.00
59650;BME280;46162;57.568;25.814;2023-09-18T10:36:52;101401.59;;;14.31;100.00
59650;BME280;46162;57.568;25.814;2023-09-18T10:39:23;101397.06;;;14.32;100.00
59650;BME280;46162;57.568;25.814;2023-09-18T10:42:01;101388.28;;;14.46;100.00
59650;BME280;46162;57.568;25.814;2023-09-18T10:44:31;101383.56;;;14.48;100.00
59650;BME280;46162;57.568;25.814;2023-09-18T10:47:01;101389.66;;;14.42;100.00
59650;BME280;46162;57.568;25.814;2023-09-18T10:49:35;101381.78;;;14.39;100.00
59650;BME280;46162;57.568;25.814;2023-09-18T10:52:04;101377.22;;;14.39;100.00
59650;BME280;46162;57.568;25.814;2023-09-18T10:54:33;101381.31;;;14.61;100.00
59650;BME280;46162;57.568;25.814;2023-09-18T10:57:05;101391.28;;;14.61;100.00
59650;BME280;46162;57.568;25.814;2023-09-18T10:59:34;101375.13;;;14.86;100.00
59650;BME280;46162;57.568;25.814;2023-09-18T11:02:14;101376.22;;;14.67;100.00
59650;BME280;46162;57.568;25.814;2023-09-18T11:04:45;101378.84;;;14.76;100.00
59650;BME280;46162;57.568;25.814;2023-09-18T11:07:20;101372.13;;;15.05;100.00
59650;BME280;46162;57.568;25.814;2023-09-18T11:09:49;101366.53;;;15.07;100.00
59650;BME280;46162;57.568;25.814;2023-09-18T11:12:18;101367.59;;;15.14;100.00
59650;BME280;46162;57.568;25.814;2023-09-18T11:14:48;101371.66;;;15.10;100.00
59650;BME280;46162;57.568;25.814;2023-09-18T11:17:33;101378.28;;;15.07;100.00
59650;BME280;46162;57.568;25.814;2023-09-18T11:20:06;101375.41;;;15.09;100.00
59650;BME280;46162;57.568;25.814;2023-09-18T11:22:39;101373.44;;;14.93;100.00
59650;BME280;46162;57.568;25.814;2023-09-18T11:28:16;101358.44;;;14.80;100.00
59650;BME280;46162;57.568;25.814;2023-09-18T11:30:51;101352.38;;;14.87;100.00
59650;BME280;46162;57.568;25.814;2023-09-18T11:33:32;101348.38;;;15.15;100.00
59650;BME280;46162;57.568;25.814;2023-09-18T11:36:07;101350.03;;;15.00;100.00
59650;BME280;46162;57.568;25.814;2023-09-18T11:38:52;101353.78;;;15.07;100.00
59650;BME280;46162;57.568;25.814;2023-09-18T11:41:25;101344.66;;;15.24;100.00
59650;BME280;46162;57.568;25.814;2023-09-18T11:44:34;101342.91;;;15.07;100.00
59650;BME280;46162;57.568;25.814;2023-09-18T11:47:10;101344.97;;;15.13;100.00
59650;BME280;46162;57.568;25.814;2023-09-18T11:49:49;101337.31;;;15.09;100.00
59650;BME280;46162;57.568;25.814;2023-09-18T11:52:24;101333.78;;;15.24;100.00
59650;BME280;46162;57.568;25.814;2023-09-18T11:54:55;101332.25;;;15.22;100.00
59650;BME280;46162;57.568;25.814;2023-09-18T11:57:25;101335.94;;;14.96;100.00
59650;BME280;46162;57.568;25.814;2023-09-18T11:59:59;101330.78;;;14.93;100.00
59650;BME280;46162;57.568;25.814;2023-09-18T12:02:39;101315.16;;;14.95;100.00
59650;BME280;46162;57.568;25.814;2023-09-18T12:05:14;101320.34;;;15.23;100.00
59650;BME280;46162;57.568;25.814;2023-09-18T12:07:46;101310.97;;;15.09;100.00
59650;BME280;46162;57.568;25.814;2023-09-18T12:10:18;101316.59;;;15.16;100.00
59650;BME280;46162;57.568;25.814;2023-09-18T12:12:48;101317.88;;;14.87;100.00
59650;BME280;46162;57.568;25.814;2023-09-18T12:15:18;101315.00;;;14.89;100.00
59650;BME280;46162;57.568;25.814;2023-09-18T12:17:47;101318.03;;;14.86;100.00
59650;BME280;46162;57.568;25.814;2023-09-18T12:20:16;101307.84;;;14.88;100.00
59650;BME280;46162;57.568;25.814;2023-09-18T12:22:49;101302.59;;;14.94;100.00
59650;BME280;46162;57.568;25.814;2023-09-18T12:25:19;101302.06;;;14.91;100.00
59650;BME280;46162;57.568;25.814;2023-09-18T12:27:52;101295.06;;;14.80;100.00
59650;BME280;46162;57.568;25.814;2023-09-18T12:30:21;101293.09;;;14.98;100.00
59650;BME280;46162;57.568;25.814;2023-09-18T12:32:51;101288.19;;;15.02;100.00
59650;BME280;46162;57.568;25.814;2023-09-18T12:35:21;101278.28;;;14.93;100.00
59650;BME280;46162;57.568;25.814;2023-09-18T12:37:52;101279.31;;;14.92;100.00
59650;BME280;46162;57.568;25.814;2023-09-18T12:40:22;101276.28;;;15.03;100.00
59650;BME280;46162;57.568;25.814;2023-09-18T12:42:51;101275.91;;;14.81;100.00
59650;BME280;46162;57.568;25.814;2023-09-18T12:45:21;101268.22;;;14.77;100.00
59650;BME280;46162;57.568;25.814;2023-09-18T12:47:50;101277.91;;;14.79;100.00
59650;BME280;46162;57.568;25.814;2023-09-18T12:50:19;101276.88;;;14.72;100.00
59650;BME280;46162;57.568;25.814;2023-09-18T12:52:48;101270.31;;;14.91;100.00
59650;BME280;46162;57.568;25.814;2023-09-18T12:55:26;101267.06;;;14.96;100.00
59650;BME280;46162;57.568;25.814;2023-09-18T12:57:55;101270.75;;;14.78;100.00
59650;BME280;46162;57.568;25.814;2023-09-18T13:00:23;101265.03;;;14.81;100.00